Time;durP1;ratioP1;P1;durP2;ratioP2;P2;SDS_P1;SDS_P2;PMS_P1;PMS_P2;Temp;Humidity;BMP_temperature;BMP_pressure;BME280_temperature;BME280_humidity;BME280_pressure;Samples;Min_cycle;Max_cycle;Signal;HPM_P1;HPM_P2
2023/05/08 00:00:58;;;;;;;18.73;16.60;;;;;;;14.23;100.00;95853.53;6160693;23;20210;-84
2023/05/08 00:03:23;;;;;;;20.63;17.57;;;;;;;14.25;100.00;95856.00;6159451;23;20597;-85
2023/05/08 00:05:49;;;;;;;18.80;16.80;;;;;;;14.24;100.00;95856.97;6135536;23;20170;-84
2023/05/08 00:08:14;;;;;;;18.57;16.17;;;;;;;14.18;100.00;95859.25;6158976;23;20162;-84
2023/05/08 00:10:39;;;;;;;18.23;14.73;;;;;;;14.29;100.00;95852.06;6157859;23;20249;-84
2023/05/08 00:13:05;;;;;;;16.40;14.40;;;;;;;14.35;100.00;95859.25;6134953;23;20257;-85
2023/05/08 00:15:30;;;;;;;16.67;14.53;;;;;;;14.33;100.00;95851.59;6159857;23;20205;-85
2023/05/08 00:17:56;;;;;;;15.27;13.73;;;;;;;14.31;100.00;95861.38;6158021;23;20155;-83
2023/05/08 00:20:21;;;;;;;14.13;12.15;;;;;;;14.42;100.00;95855.81;6158876;23;20201;-84
2023/05/08 00:22:46;;;;;;;13.25;11.85;;;;;;;14.41;100.00;95861.22;6158717;23;20221;-84
2023/05/08 00:25:12;;;;;;;12.70;10.67;;;;;;;14.47;100.00;95859.75;6134332;23;20169;-83
2023/05/08 00:27:37;;;;;;;13.10;11.53;;;;;;;14.45;100.00;95859.94;6132199;23;20163;-84
2023/05/08 00:30:03;;;;;;;12.13;10.90;;;;;;;14.47;100.00;95865.00;6143307;23;20213;-84
2023/05/08 00:32:28;;;;;;;10.97;9.93;;;;;;;14.48;100.00;95861.38;6183896;23;20189;-84
2023/05/08 00:34:53;;;;;;;11.00;9.90;;;;;;;14.52;100.00;95862.72;6158995;23;20163;-85
2023/05/08 00:37:19;;;;;;;13.07;10.60;;;;;;;14.51;100.00;95861.09;6183148;23;20151;-84
2023/05/08 00:39:44;;;;;;;12.27;11.00;;;;;;;14.48;100.00;95861.38;6159129;23;20225;-84
2023/05/08 00:42:09;;;;;;;11.73;10.60;;;;;;;14.47;100.00;95862.38;6160564;23;20162;-85
2023/05/08 00:44:35;;;;;;;10.70;9.60;;;;;;;14.50;100.00;95862.06;6160149;23;20186;-84
2023/05/08 00:47:00;;;;;;;10.63;9.50;;;;;;;14.37;100.00;95863.31;6159640;23;20166;-85
2023/05/08 00:49:26;;;;;;;10.57;9.57;;;;;;;14.35;100.00;95861.88;6159721;23;20210;-85
2023/05/08 00:51:53;;;;;;;10.73;9.73;;;;;;;14.35;100.00;95867.09;6184127;23;20162;-85
2023/05/08 00:54:19;;;;;;;11.07;9.33;;;;;;;14.41;100.00;95866.44;6184094;23;20166;-83
2023/05/08 00:56:44;;;;;;;11.17;9.47;;;;;;;14.38;100.00;95867.56;6159408;23;20163;-84
2023/05/08 00:59:13;;;;;;;10.43;9.43;;;;;;;14.31;100.00;95869.22;6160812;23;20188;-84
2023/05/08 01:01:39;;;;;;;10.37;9.17;;;;;;;14.25;100.00;95866.44;6185635;23;20194;-83
2023/05/08 01:04:05;;;;;;;12.13;9.80;;;;;;;14.26;100.00;95863.66;6185294;23;20193;-85
2023/05/08 01:06:30;;;;;;;10.27;9.27;;;;;;;14.35;100.00;95867.09;6187775;23;20151;-84
2023/05/08 01:08:56;;;;;;;10.13;8.60;;;;;;;14.43;100.00;95870.53;6163773;23;20182;-84
2023/05/08 01:11:32;;;;;;;8.50;7.60;;;;;;;14.48;100.00;95869.22;6187896;23;20233;-84
2023/05/08 01:14:18;;;;;;;11.03;9.90;;;;;;;14.44;100.00;95866.09;6162507;23;20174;-84
2023/05/08 01:16:55;;;;;;;11.13;10.03;;;;;;;14.36;100.00;95868.72;6163565;23;20158;-85
2023/05/08 01:19:26;;;;;;;12.00;9.23;;;;;;;14.40;100.00;95876.09;6162096;23;20585;-84
2023/05/08 01:22:33;;;;;;;10.97;9.03;;;;;;;14.41;100.00;95871.66;6187161;23;20167;-85
2023/05/08 01:25:07;;;;;;;10.57;9.07;;;;;;;14.38;100.00;95871.97;6162949;23;20212;-84
2023/05/08 01:28:23;;;;;;;10.03;9.03;;;;;;;14.42;100.00;95870.69;6160945;23;20220;-84
2023/05/08 01:31:13;;;;;;;10.50;8.63;;;;;;;14.39;100.00;95873.59;6126904;23;20278;-85
2023/05/08 01:33:42;;;;;;;9.67;8.70;;;;;;;14.32;100.00;95878.69;6101831;23;20174;-84
2023/05/08 01:36:34;;;;;;;10.23;9.33;;;;;;;14.38;100.00;95878.00;6100651;23;20164;-86
2023/05/08 01:39:08;;;;;;;10.70;9.70;;;;;;;14.30;100.00;95877.19;6110021;23;20259;-84
2023/05/08 01:41:34;;;;;;;10.83;9.73;;;;;;;14.28;100.00;95882.59;6101207;23;20318;-84
2023/05/08 01:44:09;;;;;;;11.73;9.63;;;;;;;14.28;100.00;95877.38;6101248;23;20621;-84
2023/05/08 01:46:35;;;;;;;13.50;10.10;;;;;;;14.20;100.00;95881.75;6100102;23;20223;-84
2023/05/08 01:49:28;;;;;;;10.83;9.70;;;;;;;14.27;100.00;95888.78;6077065;23;20266;-84
2023/05/08 01:51:58;;;;;;;10.13;9.23;;;;;;;14.23;100.00;95884.88;6106168;23;20162;-83
2023/05/08 01:54:26;;;;;;;11.73;9.83;;;;;;;14.12;100.00;95877.34;6084500;23;20184;-85
2023/05/08 01:56:54;;;;;;;11.23;10.03;;;;;;;14.17;100.00;95877.69;6110265;23;20539;-84
2023/05/08 01:59:21;;;;;;;10.40;9.50;;;;;;;14.20;100.00;95885.19;6110630;23;20188;-84
2023/05/08 02:01:48;;;;;;;10.80;8.83;;;;;;;14.19;100.00;95888.78;6086294;23;20171;-85
2023/05/08 02:04:15;;;;;;;10.37;9.37;;;;;;;14.19;100.00;95880.94;6087035;23;20263;-84
2023/05/08 02:06:41;;;;;;;9.77;8.90;;;;;;;14.17;100.00;95885.53;6171242;23;20185;-84
2023/05/08 02:09:07;;;;;;;10.63;9.10;;;;;;;14.12;100.00;95888.59;6194765;23;20178;-86
2023/05/08 02:11:34;;;;;;;10.30;9.17;;;;;;;14.03;100.00;95881.72;6196327;23;20238;-85
2023/05/08 02:14:00;;;;;;;11.67;9.07;;;;;;;14.11;100.00;95886.97;6196589;23;20541;-86
2023/05/08 02:16:26;;;;;;;10.70;9.60;;;;;;;14.16;100.00;95881.28;6196141;23;20155;-85
2023/05/08 02:18:53;;;;;;;9.40;8.50;;;;;;;14.20;100.00;95887.00;6197301;23;20154;-84
2023/05/08 02:21:18;;;;;;;11.97;9.27;;;;;;;14.21;100.00;95886.00;6197024;23;20229;-84
2023/05/08 02:23:44;;;;;;;9.87;9.03;;;;;;;14.20;100.00;95893.03;6197660;23;20162;-84
2023/05/08 02:26:12;;;;;;;9.13;8.33;;;;;;;14.22;100.00;95898.09;6171422;23;20233;-84
2023/05/08 02:28:38;;;;;;;10.47;8.33;;;;;;;14.20;100.00;95895.63;6171187;23;20159;-85
2023/05/08 02:31:04;;;;;;;9.00;8.10;;;;;;;14.19;100.00;95891.41;6198600;23;20167;-85
2023/05/08 02:33:30;;;;;;;9.27;8.37;;;;;;;14.23;100.00;95895.34;6199120;23;20162;-85
2023/05/08 02:35:56;;;;;;;8.73;7.83;;;;;;;14.20;100.00;95881.75;6196241;23;20154;-84
2023/05/08 02:38:24;;;;;;;9.27;8.37;;;;;;;14.20;100.00;95890.41;6169301;23;20266;-86
2023/05/08 02:40:53;;;;;;;9.50;8.60;;;;;;;14.19;100.00;95883.56;6192539;23;20175;-85
2023/05/08 02:43:18;;;;;;;8.80;7.90;;;;;;;14.20;100.00;95890.41;6191118;23;20222;-85
2023/05/08 02:46:13;;;;;;;8.57;7.77;;;;;;;14.25;100.00;95884.72;6165493;23;20158;-84
2023/05/08 02:48:58;;;;;;;8.53;7.63;;;;;;;14.22;100.00;95893.69;6163726;23;20162;-86
2023/05/08 02:51:42;;;;;;;8.23;7.43;;;;;;;14.23;100.00;95894.53;6165302;23;20218;-84
2023/05/08 02:54:13;;;;;;;8.63;7.83;;;;;;;14.20;100.00;95897.44;6166190;23;20162;-84
2023/05/08 02:56:43;;;;;;;9.17;8.33;;;;;;;14.20;100.00;95897.44;6190002;23;20147;-86
2023/05/08 02:59:13;;;;;;;9.03;8.13;;;;;;;14.21;100.00;95892.03;6164777;23;20228;-86
2023/05/08 03:02:10;;;;;;;9.03;8.13;;;;;;;14.23;100.00;95892.72;6192154;23;20177;-85
2023/05/08 03:04:52;;;;;;;10.93;9.37;;;;;;;14.21;100.00;95894.66;6187513;23;20166;-83
2023/05/08 03:07:20;;;;;;;10.00;9.00;;;;;;;14.21;100.00;95891.22;6188426;23;20154;-84
2023/05/08 03:09:48;;;;;;;9.70;8.70;;;;;;;14.22;100.00;95892.84;6187321;23;20174;-84
2023/05/08 03:12:15;;;;;;;9.30;8.40;;;;;;;14.20;100.00;95887.00;6189390;23;20183;-85
2023/05/08 03:14:46;;;;;;;10.07;9.07;;;;;;;14.21;100.00;95881.59;6189019;23;20201;-85
2023/05/08 03:17:14;;;;;;;9.23;8.33;;;;;;;14.23;100.00;95881.47;6188384;23;20209;-85
2023/05/08 03:19:40;;;;;;;9.37;8.30;;;;;;;14.22;100.00;95885.84;6187982;23;20175;-85
2023/05/08 03:22:06;;;;;;;9.37;8.47;;;;;;;14.23;100.00;95877.06;6188101;23;20159;-86
2023/05/08 03:24:33;;;;;;;9.50;8.50;;;;;;;14.25;100.00;95876.88;6187973;23;20165;-84
2023/05/08 03:26:59;;;;;;;8.80;8.00;;;;;;;14.21;100.00;95886.81;6161956;23;20163;-85
2023/05/08 03:29:26;;;;;;;11.57;8.67;;;;;;;14.22;100.00;95891.06;6188112;23;20186;-85
2023/05/08 03:31:52;;;;;;;8.67;7.87;;;;;;;14.22;100.00;95888.44;6188477;23;20151;-86
2023/05/08 03:34:18;;;;;;;9.13;8.23;;;;;;;14.23;100.00;95889.28;6189538;23;20167;-84
2023/05/08 03:36:44;;;;;;;8.67;7.87;;;;;;;14.22;100.00;95891.06;6161996;23;20166;-86
2023/05/08 03:39:10;;;;;;;10.07;9.03;;;;;;;14.16;100.00;95887.31;6187797;23;20188;-85
2023/05/08 03:41:35;;;;;;;10.67;9.67;;;;;;;14.16;100.00;95886.50;6188186;23;20178;-85
2023/05/08 03:44:02;;;;;;;11.87;10.50;;;;;;;14.11;100.00;95886.16;6189986;23;20169;-85
2023/05/08 03:46:29;;;;;;;13.43;11.83;;;;;;;14.09;100.00;95886.31;6187226;23;20221;-84
2023/05/08 03:48:56;;;;;;;17.00;12.13;;;;;;;14.03;100.00;95884.34;6163348;23;20205;-85
2023/05/08 03:51:21;;;;;;;12.77;11.27;;;;;;;14.04;100.00;95893.81;6187866;23;20520;-84
2023/05/08 03:53:46;;;;;;;13.47;12.13;;;;;;;13.98;100.00;95894.47;6162562;23;20166;-85
2023/05/08 03:56:12;;;;;;;12.83;11.63;;;;;;;13.95;100.00;95897.38;6161803;23;20167;-84
2023/05/08 03:58:44;;;;;;;13.33;12.03;;;;;;;14.07;100.00;95896.13;6186694;23;20296;-84
2023/05/08 04:01:25;;;;;;;13.60;12.20;;;;;;;14.11;100.00;95889.59;6185688;23;20178;-83
2023/05/08 04:04:17;;;;;;;13.97;12.57;;;;;;;14.12;100.00;95898.22;6186405;23;20150;-83
2023/05/08 04:06:48;;;;;;;17.40;13.07;;;;;;;14.06;100.00;95898.91;6172850;23;20169;-84
2023/05/08 04:09:23;;;;;;;17.50;15.13;;;;;;;14.12;100.00;95903.47;6159333;23;20178;-85
2023/05/08 04:12:01;;;;;;;23.27;13.57;;;;;;;14.13;100.00;95898.09;6167858;23;20212;-83
2023/05/08 04:15:23;;;;;;;20.37;14.73;;;;;;;14.19;100.00;95899.22;6184174;23;20147;-86
2023/05/08 04:18:37;;;;;;;28.77;15.00;;;;;;;14.22;100.00;95905.91;6156261;23;20170;-85
2023/05/08 04:22:00;;;;;;;73.90;17.00;;;;;;;14.07;100.00;95905.75;6038782;23;20265;-87
2023/05/08 04:25:30;;;;;;;47.23;16.10;;;;;;;13.88;100.00;95912.88;6034817;23;20647;-86
2023/05/08 04:28:39;;;;;;;59.43;16.60;;;;;;;14.01;100.00;95909.00;5968793;24;20194;-87
2023/05/08 04:32:03;;;;;;;72.83;17.53;;;;;;;14.12;100.00;95913.91;5977859;23;20175;-87
2023/05/08 04:35:03;;;;;;;84.00;18.73;;;;;;;14.15;100.00;95911.81;5982564;23;20625;-86
2023/05/08 04:37:37;;;;;;;159.23;21.10;;;;;;;14.03;100.00;95913.06;5924203;24;20231;-87
2023/05/08 04:40:29;;;;;;;44.63;16.50;;;;;;;14.18;100.00;95921.09;5906788;24;20199;-87
2023/05/08 04:46:19;;;;;;;135.83;19.63;;;;;;;14.15;100.00;95917.03;5923240;24;20240;-86
2023/05/08 04:48:44;;;;;;;50.30;19.87;;;;;;;14.18;100.00;95923.72;5901949;24;20184;-86
2023/05/08 04:51:10;;;;;;;257.60;25.13;;;;;;;14.16;100.00;95925.69;5901985;24;20749;-86
2023/05/08 05:13:20;;;;;;;64.93;24.87;;;;;;;14.25;100.00;95936.97;6123131;23;20245;-85
2023/05/08 05:16:14;;;;;;;61.57;22.13;;;;;;;14.32;100.00;95937.97;6191591;23;20169;-84
2023/05/08 05:18:42;;;;;;;48.77;21.70;;;;;;;14.36;100.00;95936.66;6192759;23;20231;-82
2023/05/08 05:21:08;;;;;;;34.33;20.97;;;;;;;14.38;100.00;95934.69;6193265;23;20181;-82
2023/05/08 05:23:33;;;;;;;35.30;19.23;;;;;;;14.45;100.00;95933.91;6218499;23;20196;-80
2023/05/08 05:25:59;;;;;;;103.30;21.53;;;;;;;14.45;100.00;95936.53;6218024;23;20184;-80
2023/05/08 05:28:24;;;;;;;30.83;21.07;;;;;;;14.53;100.00;95934.91;6193383;23;20603;-82
2023/05/08 05:30:50;;;;;;;42.37;20.63;;;;;;;14.57;100.00;95944.03;6192715;23;20177;-83
2023/05/08 05:33:15;;;;;;;25.07;19.37;;;;;;;14.65;100.00;95947.47;6219203;23;20303;-81
2023/05/08 05:35:40;;;;;;;30.50;19.43;;;;;;;14.64;100.00;95951.06;6192480;23;20168;-81
2023/05/08 05:38:06;;;;;;;19.73;16.33;;;;;;;14.65;100.00;95952.69;6198916;23;20173;-81
2023/05/08 05:40:31;;;;;;;21.27;15.33;;;;;;;14.72;100.00;95952.88;6200082;23;20185;-81
2023/05/08 05:42:56;;;;;;;32.47;16.40;;;;;;;14.70;100.00;95941.78;6223810;23;20161;-81
2023/05/08 05:45:22;;;;;;;73.57;17.60;;;;;;;14.39;100.00;95952.81;6214607;23;20157;-83
2023/05/08 05:47:48;;;;;;;25.13;16.97;;;;;;;14.58;100.00;95943.91;6216996;23;20164;-83
2023/05/08 05:50:15;;;;;;;33.50;16.77;;;;;;;14.69;100.00;95959.25;6195368;23;20208;-81
2023/05/08 05:52:40;;;;;;;19.53;16.20;;;;;;;14.77;100.00;95962.84;6194271;23;20161;-83
2023/05/08 05:55:06;;;;;;;20.90;16.60;;;;;;;14.81;100.00;95951.88;6194990;23;20161;-82
2023/05/08 05:57:31;;;;;;;43.03;18.00;;;;;;;14.83;100.00;95957.75;6243236;23;20164;-82
2023/05/08 05:59:58;;;;;;;37.20;19.20;;;;;;;14.85;100.00;95955.81;6219384;23;20235;-84
2023/05/08 06:02:23;;;;;;;30.83;18.77;;;;;;;14.60;100.00;95964.63;6190587;23;20448;-83
2023/05/08 06:04:50;;;;;;;29.60;18.03;;;;;;;14.69;100.00;95961.88;6191354;23;20165;-81
2023/05/08 06:07:15;;;;;;;25.60;18.47;;;;;;;14.67;100.00;95965.63;6195321;23;20252;-84
2023/05/08 06:09:41;;;;;;;26.33;18.63;;;;;;;14.59;100.00;95966.44;6221749;23;20298;-84
2023/05/08 06:12:07;;;;;;;49.60;20.00;;;;;;;14.35;100.00;95969.78;6197202;23;20172;-82
2023/05/08 06:14:32;;;;;;;46.90;19.50;;;;;;;14.45;100.00;95967.06;6246299;23;20177;-82
2023/05/08 06:16:58;;;;;;;44.20;20.00;;;;;;;14.52;100.00;95968.06;6219943;23;20164;-81
2023/05/08 06:19:24;;;;;;;68.20;24.10;;;;;;;14.37;100.00;95973.06;6196329;23;20174;-84
2023/05/08 06:21:50;;;;;;;31.47;19.67;;;;;;;14.17;100.00;95972.53;6221168;23;20183;-82
2023/05/08 06:24:15;;;;;;;32.57;19.50;;;;;;;14.36;100.00;95974.03;6194524;23;20179;-84
2023/05/08 06:26:41;;;;;;;27.07;20.07;;;;;;;14.41;100.00;95973.56;6192821;23;20625;-82
2023/05/08 06:29:06;;;;;;;26.77;21.67;;;;;;;14.26;100.00;95969.94;6217408;23;20177;-84
2023/05/08 06:31:31;;;;;;;60.70;23.20;;;;;;;14.27;100.00;95968.97;6219838;23;20156;-82
2023/05/08 06:33:57;;;;;;;26.83;20.17;;;;;;;14.38;100.00;95973.88;6194698;23;20164;-83
2023/05/08 06:36:22;;;;;;;26.53;21.80;;;;;;;14.39;100.00;95968.47;6218844;23;20630;-83
2023/05/08 06:38:47;;;;;;;27.87;21.97;;;;;;;14.44;100.00;95971.44;6194565;23;20162;-83
2023/05/08 06:41:12;;;;;;;26.07;21.93;;;;;;;14.38;100.00;95977.31;6194605;23;20189;-81
2023/05/08 06:43:38;;;;;;;31.10;23.13;;;;;;;14.38;100.00;95977.31;6220876;23;20175;-84
2023/05/08 06:46:06;;;;;;;35.10;23.13;;;;;;;14.40;100.00;95972.75;6221474;23;20559;-81
2023/05/08 06:48:31;;;;;;;43.07;25.70;;;;;;;14.29;100.00;95969.59;6198274;23;20237;-82
2023/05/08 06:50:57;;;;;;;29.83;23.40;;;;;;;14.40;100.00;95972.75;6199458;23;20218;-81
2023/05/08 06:53:22;;;;;;;32.93;25.10;;;;;;;14.50;100.00;95971.81;6199497;23;20595;-83
2023/05/08 06:55:48;;;;;;;31.03;22.87;;;;;;;14.58;100.00;95966.59;6198425;23;20164;-83
2023/05/08 06:58:13;;;;;;;27.37;23.03;;;;;;;14.61;100.00;95971.50;6199689;23;20161;-83
2023/05/08 07:00:38;;;;;;;31.77;22.57;;;;;;;14.55;100.00;95975.56;6195783;23;20208;-84
2023/05/08 07:03:04;;;;;;;26.87;21.80;;;;;;;14.63;100.00;95977.38;6220526;23;20539;-84
2023/05/08 07:05:29;;;;;;;28.13;20.50;;;;;;;14.60;100.00;95975.09;6193673;23;20238;-84
2023/05/08 07:07:55;;;;;;;28.97;20.80;;;;;;;14.65;100.00;95975.41;6200374;23;20165;-81
2023/05/08 07:10:21;;;;;;;26.70;21.40;;;;;;;14.71;100.00;95972.16;6201065;23;20943;-81
2023/05/08 07:12:47;;;;;;;29.10;22.57;;;;;;;14.50;100.00;95970.03;6222153;23;20162;-84
2023/05/08 07:15:13;;;;;;;30.60;23.53;;;;;;;14.49;100.00;95978.84;6194711;23;20173;-81
2023/05/08 07:17:41;;;;;;;30.13;21.70;;;;;;;14.72;100.00;95979.00;6194463;23;20161;-86
2023/05/08 07:20:12;;;;;;;24.93;18.23;;;;;;;14.71;100.00;95972.16;6223409;23;20231;-86
2023/05/08 07:56:09;;;;;;;28.70;22.73;;;;;;;14.59;100.00;95989.16;6037091;23;20169;-85
2023/05/08 08:12:22;;;;;;;30.67;23.33;;;;;;;14.90;100.00;95997.97;6186143;23;20205;-85
2023/05/08 08:43:25;;;;;;;23.37;19.97;;;;;;;15.17;100.00;96009.09;6223371;23;20196;-86
2023/05/08 09:07:04;;;;;;;;;;;;;;;;;;;;;
2023/05/08 09:13:07;;;;;;;17.60;14.98;;;;;;;15.57;100.00;96006.41;5897937;24;20166;-87
2023/05/08 09:16:20;;;;;;;;;;;;;;;;;;;;;
2023/05/08 09:53:03;;;;;;;14.35;12.85;;;;;;;15.86;99.50;96028.63;5925373;24;20510;-86
2023/05/08 09:55:53;;;;;;;13.18;11.85;;;;;;;15.90;98.71;96027.28;5946321;23;20173;-86
2023/05/08 09:58:41;;;;;;;12.37;11.07;;;;;;;15.78;98.72;96028.66;5985592;23;20177;-86
2023/05/08 10:05:51;;;;;;;12.43;11.25;;;;;;;15.81;97.45;96034.38;5978799;24;20170;-85
2023/05/08 10:08:19;;;;;;;13.18;11.85;;;;;;;15.74;99.81;96035.22;5795190;24;20171;-85
2023/05/08 10:11:00;;;;;;;;;;;;;;;;;;;;;
2023/05/08 10:13:26;;;;;;;13.02;11.80;;;;;;;16.17;97.20;96039.16;5926785;24;20244;-84
2023/05/08 10:15:53;;;;;;;14.18;12.60;;;;;;;16.08;97.82;96041.00;5926147;24;20176;-82
2023/05/08 10:18:21;;;;;;;13.70;12.20;;;;;;;16.15;97.06;96041.13;5925874;24;20164;-84
2023/05/08 10:20:47;;;;;;;14.70;13.20;;;;;;;15.68;98.78;96036.69;5925842;24;20192;-85
2023/05/08 10:23:17;;;;;;;13.00;11.65;;;;;;;15.76;98.80;96035.84;5927623;24;20169;-84
2023/05/08 10:25:47;;;;;;;13.23;11.93;;;;;;;15.58;100.00;96030.78;5982043;23;20171;-85
2023/05/08 10:28:31;;;;;;;15.15;13.60;;;;;;;15.73;100.00;96041.44;5986565;23;20182;-85
2023/05/08 10:31:02;;;;;;;13.85;12.55;;;;;;;15.55;100.00;96045.03;5965233;23;20182;-84
2023/05/08 10:33:33;;;;;;;13.90;12.43;;;;;;;15.86;98.75;96039.91;5986614;23;20218;-84
2023/05/08 10:36:08;;;;;;;15.25;12.80;;;;;;;15.85;99.56;96040.09;5985875;23;20182;-85
2023/05/08 10:38:35;;;;;;;13.98;12.48;;;;;;;15.97;98.10;96033.50;6043762;23;20773;-85
2023/05/08 10:41:00;;;;;;;14.23;12.82;;;;;;;16.29;97.82;96035.19;6072613;23;20187;-85
2023/05/08 10:43:30;;;;;;;15.02;13.52;;;;;;;16.49;97.66;96038.19;6134483;23;20180;-85
2023/05/08 10:46:09;;;;;;;13.98;12.70;;;;;;;16.68;96.33;96036.94;6189966;23;20161;-85
2023/05/08 10:48:52;;;;;;;11.77;10.57;;;;;;;16.56;92.59;96033.88;6189730;23;20156;-86
2023/05/08 10:51:45;;;;;;;10.95;9.90;;;;;;;16.31;95.11;96032.38;6166030;23;20177;-86
2023/05/08 10:54:57;;;;;;;10.35;9.35;;;;;;;16.63;91.73;96023.53;6217142;23;20215;-84
2023/05/08 10:57:37;;;;;;;11.90;10.75;;;;;;;16.80;93.67;96026.91;6187244;23;20204;-86
2023/05/08 11:00:06;;;;;;;11.40;10.30;;;;;;;17.09;91.55;96021.75;6167005;23;20208;-85
2023/05/08 11:02:35;;;;;;;11.68;10.52;;;;;;;16.86;93.30;96021.75;6165877;23;20157;-85
2023/05/08 11:05:33;;;;;;;11.30;9.98;;;;;;;16.95;92.67;96012.00;6191384;23;20162;-85
2023/05/08 11:08:27;;;;;;;10.90;9.90;;;;;;;17.49;88.64;96017.13;6070268;23;20678;-84
2023/05/08 11:11:37;;;;;;;10.48;9.50;;;;;;;17.64;89.45;96015.34;6070558;23;20639;-85
2023/05/08 11:39:22;;;;;;;5.90;5.40;;;;;;;19.49;74.21;96003.47;6192007;22;20205;-83
2023/05/08 11:42:39;;;;;;;7.03;5.80;;;;;;;19.08;75.64;96003.31;6246343;23;20477;-88
2023/05/08 11:48:34;;;;;;;5.03;4.53;;;;;;;18.88;74.77;96011.84;6191777;23;20157;-86
2023/05/08 11:51:33;;;;;;;5.45;4.95;;;;;;;20.16;71.88;96012.63;6192795;23;20169;-87
2023/05/08 11:54:31;;;;;;;7.03;5.38;;;;;;;19.73;73.63;96010.16;6184183;23;20221;-87
2023/05/08 11:56:58;;;;;;;4.93;4.43;;;;;;;18.83;75.56;96016.06;6186077;23;20191;-85
2023/05/08 11:59:26;;;;;;;4.30;3.90;;;;;;;19.33;70.25;96009.81;6163631;23;20181;-84
2023/05/08 12:01:52;;;;;;;3.75;3.17;;;;;;;19.62;68.90;96013.31;6189772;23;20166;-84
2023/05/08 12:04:17;;;;;;;4.60;3.53;;;;;;;19.37;72.92;96008.44;6163645;23;20237;-86
2023/05/08 12:06:50;;;;;;;3.45;3.15;;;;;;;19.47;67.90;96016.81;6162862;23;20225;-84
2023/05/08 12:09:17;;;;;;;3.70;3.40;;;;;;;19.29;72.12;96016.47;6163865;23;20185;-84
2023/05/08 12:11:44;;;;;;;3.60;2.80;;;;;;;19.73;68.76;96013.59;6187899;23;20233;-82
2023/05/08 12:14:13;;;;;;;3.42;3.13;;;;;;;20.04;68.90;96013.16;6163766;23;20599;-84
2023/05/08 12:16:44;;;;;;;2.90;2.70;;;;;;;20.14;68.46;96020.69;6183397;23;20165;-84
2023/05/08 12:19:12;;;;;;;4.05;3.70;;;;;;;20.09;66.51;96013.38;6159497;23;20197;-84
2023/05/08 12:21:50;;;;;;;4.30;3.00;;;;;;;20.16;68.29;96015.25;6185699;23;20255;-82
2023/05/08 12:24:21;;;;;;;3.38;3.08;;;;;;;20.26;66.72;96011.25;6192128;23;20881;-82
2023/05/08 12:26:48;;;;;;;4.43;3.25;;;;;;;20.29;65.73;96015.28;6218485;23;20137;-83
2023/05/08 12:29:16;;;;;;;3.05;2.75;;;;;;;20.42;66.87;96012.72;6242753;23;20213;-83
2023/05/08 12:31:41;;;;;;;3.42;3.03;;;;;;;20.50;64.13;96017.06;6192880;23;20206;-83
2023/05/08 12:34:10;;;;;;;4.00;2.95;;;;;;;20.70;66.41;96019.75;6217600;23;20228;-83
2023/05/08 12:36:36;;;;;;;4.57;3.00;;;;;;;21.53;63.39;96004.41;6216360;23;20495;-84
2023/05/08 12:43:20;;;;;;;;;;;;;;;;;;;;;
2023/05/08 12:46:38;;;;;;;3.47;3.17;;;;;;;21.33;62.95;96015.78;6245604;23;20209;-87
2023/05/08 12:52:26;;;;;;;3.50;3.20;;;;;;;20.08;64.60;96008.31;6103041;23;20747;-87
2023/05/08 12:58:53;;;;;;;3.78;3.35;;;;;;;21.50;63.11;96010.91;6044510;23;20172;-87
2023/05/08 13:01:20;;;;;;;3.50;3.20;;;;;;;21.14;63.24;96006.00;6012406;23;20193;-86
2023/05/08 13:03:52;;;;;;;4.10;3.70;;;;;;;20.96;64.02;96009.25;5991181;23;20181;-85
2023/05/08 13:06:23;;;;;;;4.13;3.72;;;;;;;20.44;66.63;96015.19;5989903;23;20648;-86
2023/05/08 13:09:00;;;;;;;4.38;4.00;;;;;;;19.24;74.47;96000.44;5989120;23;20225;-88
2023/05/08 13:11:31;;;;;;;5.32;4.82;;;;;;;18.73;77.52;96002.38;5989793;23;20229;-86
2023/05/08 13:14:02;;;;;;;6.20;5.60;;;;;;;18.13;79.60;95996.44;6011414;23;20166;-87
2023/05/08 13:16:29;;;;;;;7.70;6.95;;;;;;;18.03;79.18;95996.72;6013272;23;20172;-87
2023/05/08 13:18:58;;;;;;;7.90;7.07;;;;;;;17.85;82.81;95996.28;5988165;23;20158;-87
2023/05/08 13:21:30;;;;;;;10.55;8.13;;;;;;;17.61;85.48;95997.34;6010219;23;20210;-86
2023/05/08 13:24:00;;;;;;;9.43;8.52;;;;;;;17.51;88.05;95994.97;5989350;23;20181;-86
2023/05/08 13:26:35;;;;;;;10.30;9.23;;;;;;;17.08;88.58;95999.13;6045214;23;20161;-87
2023/05/08 13:29:11;;;;;;;10.05;9.05;;;;;;;17.03;89.06;95995.41;6070096;23;20184;-87
2023/05/08 13:31:51;;;;;;;9.70;8.85;;;;;;;17.15;88.90;95991.38;6127827;23;20587;-86
2023/05/08 13:34:32;;;;;;;10.65;9.63;;;;;;;16.88;88.12;95990.13;6219314;23;20145;-87
2023/05/08 13:37:05;;;;;;;14.43;10.63;;;;;;;16.79;89.26;95986.75;6218824;23;20177;-87
2023/05/08 13:39:55;;;;;;;11.32;10.20;;;;;;;16.43;91.46;95991.69;6218311;23;20200;-86
2023/05/08 13:42:55;;;;;;;11.48;10.30;;;;;;;16.45;92.19;95987.09;6194408;23;20161;-87
2023/05/08 13:45:25;;;;;;;13.63;11.75;;;;;;;15.99;94.64;95988.78;6218976;23;20192;-87
2023/05/08 13:48:05;;;;;;;16.67;13.75;;;;;;;16.10;93.81;95991.06;6193187;23;20161;-87
2023/05/08 13:50:59;;;;;;;16.25;14.65;;;;;;;15.87;97.12;95988.34;6218770;23;20169;-86
2023/05/08 13:56:24;;;;;;;17.83;15.48;;;;;;;15.90;98.00;95993.25;6101662;23;20183;-83
2023/05/08 13:58:51;;;;;;;18.80;17.00;;;;;;;15.64;99.98;95980.44;6097407;23;20160;-83
2023/05/08 14:01:16;;;;;;;20.13;16.98;;;;;;;15.42;100.00;95981.09;6073859;23;20198;-83
2023/05/08 14:03:41;;;;;;;20.30;18.20;;;;;;;15.85;99.69;95983.28;6098251;23;20164;-83
2023/05/08 14:06:06;;;;;;;19.08;16.55;;;;;;;15.81;99.00;95981.16;6122933;23;20182;-84
2023/05/08 14:08:32;;;;;;;20.45;18.08;;;;;;;15.90;98.92;95988.00;6098553;23;20164;-84
2023/05/08 14:10:57;;;;;;;20.13;17.98;;;;;;;15.93;98.10;95973.78;6123498;23;20678;-85
2023/05/08 14:13:22;;;;;;;21.10;17.35;;;;;;;15.93;98.21;95977.22;6123809;23;20322;-86
2023/05/08 14:19:40;;;;;;;18.50;16.60;;;;;;;16.02;99.04;95973.56;6097452;23;20187;-87
2023/05/08 14:22:40;;;;;;;19.42;17.45;;;;;;;16.07;98.63;95973.84;6126738;23;20236;-86
2023/05/08 14:32:46;;;;;;;20.40;18.20;;;;;;;15.59;100.00;95987.91;5924272;24;20239;-86
2023/05/08 14:39:27;;;;;;;20.05;17.92;;;;;;;15.23;100.00;95983.09;5951877;24;20172;-86
2023/05/08 14:45:50;;;;;;;22.63;20.33;;;;;;;15.44;100.00;95977.31;5763523;24;20169;-85
2023/05/08 14:55:49;;;;;;;26.65;23.20;;;;;;;15.79;100.00;95970.06;5764754;24;20187;-86
2023/05/08 14:58:15;;;;;;;25.63;22.92;;;;;;;15.73;100.00;95965.50;5763638;24;20187;-83
2023/05/08 15:00:40;;;;;;;25.75;22.30;;;;;;;15.74;100.00;95969.75;5763834;24;20204;-82
2023/05/08 15:03:05;;;;;;;23.98;19.73;;;;;;;15.92;100.00;95970.34;5741426;24;20169;-82
2023/05/08 15:05:31;;;;;;;23.35;20.85;;;;;;;16.03;100.00;95969.13;5762996;24;20972;-78
2023/05/08 15:07:56;;;;;;;24.02;21.52;;;;;;;15.95;100.00;95963.94;5793487;24;20240;-80
2023/05/08 15:10:22;;;;;;;24.15;20.95;;;;;;;15.84;100.00;95960.72;5900223;24;20222;-80
2023/05/08 15:12:47;;;;;;;24.05;21.55;;;;;;;15.73;100.00;95970.75;5987772;23;20197;-78
2023/05/08 15:15:13;;;;;;;23.23;20.77;;;;;;;16.01;100.00;95969.31;5987480;23;20177;-81
2023/05/08 15:17:40;;;;;;;24.92;22.27;;;;;;;16.12;100.00;95968.94;6059721;23;20618;-78
2023/05/08 15:20:06;;;;;;;23.58;21.10;;;;;;;16.01;100.00;95971.13;6120990;23;20243;-79
2023/05/08 15:22:31;;;;;;;22.48;20.10;;;;;;;16.37;99.80;95976.66;6131838;23;20472;-83
2023/05/08 15:25:01;;;;;;;23.08;20.50;;;;;;;16.38;98.92;95975.66;6215766;23;20161;-84
2023/05/08 15:27:27;;;;;;;22.05;19.75;;;;;;;16.37;99.28;95977.47;6240648;23;20153;-81
2023/05/08 15:29:53;;;;;;;23.45;21.05;;;;;;;16.29;98.79;95974.91;6215718;23;20174;-85
2023/05/08 15:32:18;;;;;;;22.88;20.33;;;;;;;16.43;98.73;95974.19;6215703;23;20161;-82
2023/05/08 15:34:44;;;;;;;24.85;21.00;;;;;;;16.29;98.69;95974.09;6240714;23;20160;-85
2023/05/08 15:37:09;;;;;;;21.77;19.48;;;;;;;16.51;97.86;95980.34;6217722;23;20150;-85